KRFD/RFD METAR and TAF weather

Enter ICAO airport designator
Station Type Date Time Source
KRFD METAR 2021/01/27 13:54 UTC NOAA

KRFD 271354Z 01009KT 10SM BKN250 M10/M15 A3036 RMK AO2 SLP295 T11001150


Station Type Date Time Source
KRFD Decoded METAR 2021/01/27 13:54 UTC NOAA

GREATER ROCKFORD AIRPORT, IL, United States (KRFD) 42-12N 89-06W 221M
Jan 27, 2021 - 08:54 AM EST / 2021.01.27 1354 UTC
Wind: from the N (010 degrees) at 10 MPH (9 KT):0
Visibility: 10 mile(s):0
Sky conditions: mostly cloudy
Temperature: 14.0 F (-10.0 C)
Windchill: 1 F (-17 C):1
Dew Point: 5.0 F (-15.0 C)
Relative Humidity: 66%
Pressure (altimeter): 30.36 in. Hg (1028 hPa)
ob: KRFD 271354Z 01009KT 10SM BKN250 M10/M15 A3036 RMK AO2 SLP295 T11001150
cycle: 14

Station Type Date Time Source
KRFD TAF 2021/01/27 12:27 UTC NOAA

TAF KRFD 271125Z 2712/2812 01009KT P6SM FEW030 SCT200
FM272200 35004KT P6SM FEW200

Example: see airport list